Cook, Minnesota
Current Conditions -  °F | °C
As of 1:35 PM on Thursday 30 Oct 2014 (Local Time) from KCQM Reporting Station
Overcast Overcast  
Wind Chill: 30°   Ceiling: 1600
Heat Index: 37°   Visibility: 7mi
Dew Point: 34°   Wind: 10mph
Humidity: 87%   Direction: 290°WNW
Pressure: 30.1"   Gusts: NA
Location:  47.85°N, 92.69°W
Report Text: KCQM 301835Z AUTO 29009KT 7SM BKN016 OVC022 03/01 A3010 RMK AO2
Loading
Personal Weather Stations






























Interactive Weather Map
Tropical Storm Tracking
New forecast layout! Learn more

10-Day Weather Forecast

Advertisements
Track Severe Weather on mobile